createdAt,value
2023-02-15T00:01:49.107Z,102019.13
2023-02-15T00:04:18.747Z,102013.22
2023-02-15T00:06:47.843Z,102012.38
2023-02-15T00:09:15.762Z,102012.03
2023-02-15T00:11:50.716Z,102007.00
2023-02-15T00:14:20.661Z,102010.28
2023-02-15T00:16:49.573Z,102007.81
2023-02-15T00:19:19.197Z,102011.41
2023-02-15T00:21:48.700Z,102005.09
2023-02-15T00:24:18.868Z,102006.25
2023-02-15T00:26:47.092Z,102009.94
2023-02-15T00:29:16.545Z,101995.16
2023-02-15T00:31:44.749Z,101997.69
2023-02-15T00:34:13.995Z,101998.56
2023-02-15T00:36:41.958Z,101986.84
2023-02-15T00:39:11.399Z,101993.44
2023-02-15T00:41:39.457Z,101998.31
2023-02-15T00:44:07.411Z,101993.22
2023-02-15T00:46:35.523Z,101984.34
2023-02-15T00:49:03.610Z,101991.41
2023-02-15T00:51:31.837Z,101985.81
2023-02-15T00:53:59.599Z,101983.06
2023-02-15T00:56:29.798Z,101975.78
2023-02-15T00:58:57.892Z,101982.16
2023-02-15T01:01:27.019Z,101970.13
2023-02-15T01:03:55.156Z,101976.19
2023-02-15T01:06:22.941Z,101976.25
2023-02-15T01:08:50.669Z,101967.03
2023-02-15T01:11:23.036Z,101969.41
2023-02-15T01:13:53.702Z,101968.72
2023-02-15T01:16:22.213Z,101965.50
2023-02-15T01:18:50.292Z,101958.41
2023-02-15T01:21:19.762Z,101950.00
2023-02-15T01:23:47.821Z,101955.75
2023-02-15T01:26:16.348Z,101949.38
2023-02-15T01:28:44.083Z,101950.47
2023-02-15T01:31:15.480Z,101952.16
2023-02-15T01:33:43.773Z,101955.34
2023-02-15T01:36:11.944Z,101955.56
2023-02-15T01:38:40.827Z,101944.88
2023-02-15T01:41:24.989Z,101945.63
2023-02-15T01:43:54.580Z,101935.84
2023-02-15T01:46:27.310Z,101936.91
2023-02-15T01:48:59.253Z,101941.09
2023-02-15T01:51:29.858Z,101929.31
2023-02-15T01:54:00.855Z,101930.41
2023-02-15T01:56:31.782Z,101917.09
2023-02-15T01:59:02.072Z,101920.22
2023-02-15T02:01:31.213Z,101917.72
2023-02-15T02:04:02.046Z,101924.06
2023-02-15T02:06:30.183Z,101913.75
2023-02-15T02:08:58.588Z,101921.22
2023-02-15T02:11:27.044Z,101919.03
2023-02-15T02:13:55.875Z,101918.44
2023-02-15T02:16:26.002Z,101911.13
2023-02-15T02:19:05.284Z,101911.72
2023-02-15T02:21:51.591Z,101911.97
2023-02-15T02:24:34.739Z,101901.31
2023-02-15T02:27:20.842Z,101905.63
2023-02-15T02:30:11.443Z,101906.44
2023-02-15T02:32:54.265Z,101904.38
2023-02-15T02:35:26.653Z,101904.63
2023-02-15T02:38:04.441Z,101906.25
2023-02-15T02:40:38.165Z,101904.72
2023-02-15T02:43:11.179Z,101902.75
2023-02-15T02:45:45.432Z,101896.78
2023-02-15T02:48:17.537Z,101894.31
2023-02-15T02:50:45.217Z,101883.25
2023-02-15T02:53:13.206Z,101880.47
2023-02-15T02:55:43.318Z,101882.13
2023-02-15T02:58:13.902Z,101874.97
2023-02-15T03:00:44.940Z,101881.94
2023-02-15T03:03:16.547Z,101888.03
2023-02-15T03:05:47.244Z,101884.13
2023-02-15T03:08:22.668Z,101879.66
2023-02-15T03:10:51.052Z,101879.66
2023-02-15T03:13:18.934Z,101883.38
2023-02-15T03:16:04.609Z,101873.28
2023-02-15T03:18:36.544Z,101874.94
2023-02-15T03:21:05.364Z,101867.28
2023-02-15T03:23:34.762Z,101874.16
2023-02-15T03:26:04.427Z,101875.00
2023-02-15T03:28:37.069Z,101867.31
2023-02-15T03:31:07.458Z,101869.31
2023-02-15T03:33:38.282Z,101872.56
2023-02-15T03:36:10.717Z,101878.81
2023-02-15T03:38:42.931Z,101866.94
2023-02-15T03:41:11.482Z,101874.50
2023-02-15T03:43:45.444Z,101866.59
2023-02-15T03:46:17.580Z,101864.94
2023-02-15T03:48:50.292Z,101871.88
2023-02-15T03:51:39.059Z,101872.84
2023-02-15T03:54:09.946Z,101878.59
2023-02-15T03:56:38.604Z,101871.59
2023-02-15T03:59:24.246Z,101865.53
2023-02-15T04:02:00.282Z,101867.78
2023-02-15T04:04:36.060Z,101867.56
2023-02-15T04:07:05.669Z,101866.94
2023-02-15T04:09:51.151Z,101866.13
2023-02-15T04:12:19.132Z,101862.50
2023-02-15T04:15:04.664Z,101861.66
2023-02-15T04:17:32.323Z,101863.69
2023-02-15T04:20:18.861Z,101855.88
2023-02-15T04:23:04.270Z,101850.59
2023-02-15T04:25:32.253Z,101858.91
2023-02-15T04:27:59.951Z,101852.66
2023-02-15T04:30:28.504Z,101851.97
2023-02-15T04:32:58.071Z,101843.78
2023-02-15T04:35:27.800Z,101842.81
2023-02-15T04:37:56.868Z,101843.53
2023-02-15T04:40:24.662Z,101842.91
2023-02-15T04:42:52.326Z,101845.13
2023-02-15T04:45:20.017Z,101840.47
2023-02-15T04:47:48.019Z,101835.41
2023-02-15T04:50:15.961Z,101838.28
2023-02-15T04:52:45.343Z,101831.56
2023-02-15T04:55:13.064Z,101833.59
2023-02-15T04:57:40.769Z,101843.19
2023-02-15T05:00:10.674Z,101838.25
2023-02-15T05:02:38.718Z,101833.44
2023-02-15T05:05:07.333Z,101836.25
2023-02-15T05:07:35.047Z,101838.63
2023-02-15T05:10:04.403Z,101829.91
2023-02-15T05:12:32.200Z,101827.16
2023-02-15T05:14:59.843Z,101831.84
2023-02-15T05:17:27.616Z,101832.66
2023-02-15T05:19:55.292Z,101833.50
2023-02-15T05:22:22.958Z,101828.34
2023-02-15T05:25:08.449Z,101833.03
2023-02-15T05:27:55.166Z,101829.44
2023-02-15T05:30:23.013Z,101829.53
2023-02-15T05:32:50.894Z,101825.09
2023-02-15T05:35:19.006Z,101824.47
2023-02-15T05:37:46.653Z,101819.75
2023-02-15T05:40:14.483Z,101824.97
2023-02-15T05:42:43.770Z,101821.34
2023-02-15T05:45:11.689Z,101821.25
2023-02-15T05:47:39.357Z,101809.78
2023-02-15T05:50:08.353Z,101811.09
2023-02-15T05:52:36.300Z,101810.81
2023-02-15T05:55:05.179Z,101804.34
2023-02-15T05:57:33.065Z,101803.47
2023-02-15T06:00:02.418Z,101799.94
2023-02-15T06:02:30.153Z,101800.16
2023-02-15T06:04:57.828Z,101801.63
2023-02-15T06:07:25.477Z,101795.38
2023-02-15T06:09:53.400Z,101794.88
2023-02-15T06:12:21.050Z,101798.47
2023-02-15T06:14:48.704Z,101803.28
2023-02-15T06:17:18.255Z,101805.44
2023-02-15T06:19:46.053Z,101805.44
2023-02-15T06:22:14.984Z,101803.16
2023-02-15T06:24:43.796Z,101800.41
2023-02-15T06:27:11.736Z,101809.28
2023-02-15T06:29:39.472Z,101803.75
2023-02-15T06:32:07.749Z,101792.75
2023-02-15T06:34:36.902Z,101796.91
2023-02-15T06:37:04.670Z,101801.06
2023-02-15T06:39:32.365Z,101806.03
2023-02-15T06:42:00.264Z,101805.66
2023-02-15T06:44:27.985Z,101805.94
2023-02-15T06:46:55.690Z,101808.31
2023-02-15T06:49:23.365Z,101803.19
2023-02-15T06:51:52.447Z,101807.84
2023-02-15T06:54:20.459Z,101825.69
2023-02-15T06:56:48.144Z,101821.63
2023-02-15T06:59:15.845Z,101810.97
2023-02-15T07:01:43.545Z,101807.63
2023-02-15T07:04:11.697Z,101811.69
2023-02-15T07:06:39.397Z,101811.94
2023-02-15T07:09:08.694Z,101810.97
2023-02-15T07:11:53.899Z,101809.41
2023-02-15T07:14:23.686Z,101803.75
2023-02-15T07:16:51.391Z,101804.72
2023-02-15T07:19:19.133Z,101798.97
2023-02-15T07:21:47.591Z,101801.00
2023-02-15T07:24:16.708Z,101801.13
2023-02-15T07:26:44.362Z,101797.03
2023-02-15T07:29:12.178Z,101795.09
2023-02-15T07:31:40.001Z,101800.31
2023-02-15T07:34:08.398Z,101794.47
2023-02-15T07:36:36.520Z,101790.75
2023-02-15T07:39:04.373Z,101790.50
2023-02-15T07:41:33.713Z,101782.66
2023-02-15T07:44:01.625Z,101783.66
2023-02-15T07:46:29.345Z,101775.50
2023-02-15T07:48:57.010Z,101776.91
2023-02-15T07:51:24.731Z,101777.97
2023-02-15T07:53:52.823Z,101772.28
2023-02-15T07:56:20.857Z,101772.00
2023-02-15T07:58:52.923Z,101759.78
2023-02-15T08:01:21.958Z,101759.84
2023-02-15T08:03:50.095Z,101762.22
2023-02-15T08:06:18.437Z,101764.66
2023-02-15T08:08:46.283Z,101758.28
2023-02-15T08:11:30.183Z,101759.41
2023-02-15T08:14:03.347Z,101757.22
2023-02-15T08:16:33.767Z,101756.97
2023-02-15T08:19:03.744Z,101756.31
2023-02-15T08:21:31.849Z,101750.34
2023-02-15T08:24:00.175Z,101750.38
2023-02-15T08:26:28.806Z,101751.25
2023-02-15T08:28:56.856Z,101755.44
2023-02-15T08:31:26.699Z,101744.03
2023-02-15T08:33:55.615Z,101746.84
2023-02-15T08:36:25.240Z,101744.06
2023-02-15T08:38:53.118Z,101743.00
2023-02-15T08:41:22.531Z,101749.94
2023-02-15T08:43:53.173Z,101744.09
2023-02-15T08:46:21.106Z,101733.22
2023-02-15T08:48:50.457Z,101730.16
2023-02-15T08:51:19.969Z,101728.63
2023-02-15T08:53:50.376Z,101727.78
2023-02-15T08:56:18.518Z,101728.88
2023-02-15T08:58:46.693Z,101724.53
2023-02-15T09:01:18.805Z,101725.78
2023-02-15T09:03:47.331Z,101720.88
2023-02-15T09:06:16.793Z,101722.78
2023-02-15T09:08:44.630Z,101717.50
2023-02-15T09:11:14.034Z,101712.00
2023-02-15T09:13:42.081Z,101710.53
2023-02-15T09:16:11.334Z,101710.69
2023-02-15T09:18:40.630Z,101704.78
2023-02-15T09:21:10.038Z,101709.56
2023-02-15T09:23:39.152Z,101700.81
2023-02-15T09:26:08.338Z,101703.06
2023-02-15T09:28:36.745Z,101695.16
2023-02-15T09:31:09.614Z,101691.78
2023-02-15T09:33:37.920Z,101698.41
2023-02-15T09:36:06.543Z,101699.59
2023-02-15T09:38:34.372Z,101700.63
2023-02-15T09:41:23.705Z,101695.44
2023-02-15T09:43:59.384Z,101696.63
2023-02-15T09:46:36.983Z,101696.53
2023-02-15T09:49:12.515Z,101687.75
2023-02-15T09:51:53.842Z,101695.59
2023-02-15T09:54:41.914Z,101693.41
2023-02-15T09:57:18.084Z,101699.41
2023-02-15T09:59:52.528Z,101692.47
2023-02-15T10:02:36.852Z,101689.53
2023-02-15T10:05:13.533Z,101696.19
2023-02-15T10:07:57.538Z,101704.19
2023-02-15T10:10:29.627Z,101696.19
2023-02-15T10:13:10.464Z,101698.19
2023-02-15T10:15:53.243Z,101699.00
2023-02-15T10:18:36.889Z,101698.88
2023-02-15T10:21:11.069Z,101695.69
2023-02-15T10:23:49.464Z,101695.50
2023-02-15T10:26:20.746Z,101687.69
2023-02-15T10:28:52.244Z,101699.78
2023-02-15T10:31:26.620Z,101696.97
2023-02-15T10:34:06.265Z,101704.78
2023-02-15T10:36:46.027Z,101693.69
2023-02-15T10:39:22.737Z,101700.56
2023-02-15T10:41:57.727Z,101697.81
2023-02-15T10:44:37.695Z,101702.25
2023-02-15T10:47:25.194Z,101700.81
2023-02-15T10:50:08.720Z,101695.25
2023-02-15T10:52:45.617Z,101686.78
2023-02-15T10:55:19.193Z,101687.88
2023-02-15T10:57:54.106Z,101683.72
2023-02-15T11:00:26.984Z,101682.03
2023-02-15T11:03:06.694Z,101667.53
2023-02-15T11:05:43.609Z,101673.41
2023-02-15T11:08:13.761Z,101664.53
2023-02-15T11:10:45.149Z,101671.84
2023-02-15T11:13:16.428Z,101663.25
2023-02-15T11:15:49.362Z,101671.03
2023-02-15T11:18:21.436Z,101673.06
2023-02-15T11:20:55.579Z,101672.88
2023-02-15T11:23:23.840Z,101679.59
2023-02-15T11:25:58.341Z,101673.28
2023-02-15T11:28:31.626Z,101660.53
2023-02-15T11:31:04.807Z,101654.66
2023-02-15T11:33:37.201Z,101652.81
2023-02-15T11:36:09.001Z,101652.63
2023-02-15T11:38:37.486Z,101647.38
2023-02-15T11:41:07.850Z,101644.50
2023-02-15T11:43:39.097Z,101647.00
2023-02-15T11:46:12.198Z,101640.91
2023-02-15T11:48:40.536Z,101639.75
2023-02-15T11:51:10.925Z,101629.91
2023-02-15T11:53:39.850Z,101637.84
2023-02-15T11:56:15.789Z,101627.94
2023-02-15T11:58:46.141Z,101626.41
2023-02-15T12:01:18.333Z,101635.31
2023-02-15T12:03:48.893Z,101623.16
2023-02-15T12:06:22.430Z,101609.16
2023-02-15T12:08:57.537Z,101609.81
2023-02-15T12:11:30.913Z,101622.50
2023-02-15T12:14:00.789Z,101610.22
2023-02-15T12:16:31.482Z,101600.47
2023-02-15T12:19:00.608Z,101595.69
2023-02-15T12:21:31.821Z,101601.69
2023-02-15T12:24:04.776Z,101597.47
2023-02-15T12:26:34.214Z,101589.16
2023-02-15T12:29:03.650Z,101597.63
2023-02-15T12:31:39.313Z,101594.16
2023-02-15T12:34:12.839Z,101597.06
2023-02-15T12:36:47.487Z,101590.47
2023-02-15T12:39:23.958Z,101578.84
2023-02-15T12:42:02.270Z,101583.03
2023-02-15T12:44:31.261Z,101589.66
2023-02-15T12:47:02.195Z,101573.91
2023-02-15T12:49:31.472Z,101578.88
2023-02-15T12:52:00.859Z,101568.69
2023-02-15T12:54:37.550Z,101580.09
2023-02-15T12:57:25.700Z,101570.56
2023-02-15T12:59:55.697Z,101556.91
2023-02-15T13:02:27.880Z,101554.16
2023-02-15T13:04:56.250Z,101554.22
2023-02-15T13:07:24.439Z,101568.78
2023-02-15T13:09:52.488Z,101560.41
2023-02-15T13:12:24.306Z,101560.22
2023-02-15T13:14:53.847Z,101555.75
2023-02-15T13:17:27.946Z,101549.97
2023-02-15T13:19:56.200Z,101538.25
2023-02-15T13:22:25.855Z,101541.09
2023-02-15T13:24:55.774Z,101546.53
2023-02-15T13:27:25.030Z,101530.47
2023-02-15T13:29:55.348Z,101542.66
2023-02-15T13:32:31.394Z,101530.53
2023-02-15T13:35:00.943Z,101538.41
2023-02-15T13:37:43.330Z,101533.97
2023-02-15T13:40:16.306Z,101532.91
2023-02-15T13:42:47.155Z,101528.38
2023-02-15T13:45:28.812Z,101514.56
2023-02-15T13:48:02.480Z,101510.84
2023-02-15T13:50:45.984Z,101515.66
2023-02-15T13:53:24.542Z,101515.28
2023-02-15T13:55:54.072Z,101515.91
2023-02-15T13:58:39.165Z,101507.63
2023-02-15T14:01:11.589Z,101516.22
2023-02-15T14:03:52.887Z,101505.19
2023-02-15T14:06:34.599Z,101511.56
2023-02-15T14:09:13.735Z,101496.00
2023-02-15T14:11:49.363Z,101507.91
2023-02-15T14:14:26.548Z,101501.19
2023-02-15T14:17:06.763Z,101499.31
2023-02-15T14:19:42.285Z,101489.75
2023-02-15T14:22:16.871Z,101497.06
2023-02-15T14:24:49.035Z,101484.34
2023-02-15T14:27:23.710Z,101500.56
2023-02-15T14:29:54.275Z,101497.59
2023-02-15T14:32:28.858Z,101477.81
2023-02-15T14:34:59.913Z,101473.91
2023-02-15T14:37:38.552Z,101496.06
2023-02-15T14:40:27.803Z,101480.50
2023-02-15T14:42:59.501Z,101473.66
2023-02-15T14:45:33.775Z,101472.13
2023-02-15T14:48:07.612Z,101480.72
2023-02-15T14:50:45.110Z,101486.66
2023-02-15T14:53:26.940Z,101482.00
2023-02-15T14:56:19.152Z,101470.44
2023-02-15T14:59:01.917Z,101468.16
2023-02-15T15:01:31.228Z,101473.44
2023-02-15T15:04:01.668Z,101478.66
2023-02-15T15:06:33.343Z,101493.66
2023-02-15T15:09:02.899Z,101506.06
2023-02-15T15:11:44.657Z,101513.81
2023-02-15T15:14:39.005Z,101513.63
2023-02-15T15:17:07.578Z,101524.41
2023-02-15T15:20:00.913Z,101517.03
2023-02-15T15:22:31.316Z,101504.31
2023-02-15T15:24:59.784Z,101497.53
2023-02-15T15:27:43.927Z,101494.88
2023-02-15T15:30:49.494Z,101503.94
2023-02-15T15:33:33.448Z,101484.25
2023-02-15T15:36:17.414Z,101491.13
2023-02-15T15:38:55.212Z,101484.06
2023-02-15T15:41:34.435Z,101475.78
2023-02-15T15:44:27.082Z,101486.91
2023-02-15T15:47:18.907Z,101478.66
2023-02-15T15:49:46.589Z,101477.66
2023-02-15T15:52:17.391Z,101488.75
2023-02-15T15:54:48.499Z,101465.69
2023-02-15T15:57:20.248Z,101471.53
2023-02-15T15:59:48.599Z,101480.72
2023-02-15T16:02:18.683Z,101480.00
2023-02-15T16:04:49.193Z,101480.09
2023-02-15T16:07:26.677Z,101470.47
2023-02-15T16:10:00.873Z,101473.19
2023-02-15T16:12:29.891Z,101483.06
2023-02-15T16:14:58.234Z,101476.13
2023-02-15T16:17:29.109Z,101470.75
2023-02-15T16:20:02.357Z,101480.69
2023-02-15T16:22:30.073Z,101480.28
2023-02-15T16:25:21.468Z,101474.41
2023-02-15T16:27:49.730Z,101472.47
2023-02-15T16:30:26.289Z,101476.53
2023-02-15T16:33:05.051Z,101469.50
2023-02-15T16:35:33.077Z,101468.22
2023-02-15T16:38:01.013Z,101460.94
2023-02-15T16:40:42.956Z,101475.38
2023-02-15T16:43:17.016Z,101476.00
2023-02-15T16:45:44.700Z,101457.59
2023-02-15T16:48:16.979Z,101478.75
2023-02-15T16:50:49.797Z,101467.22
2023-02-15T16:53:21.897Z,101477.63
2023-02-15T16:55:53.983Z,101468.63
2023-02-15T16:58:27.546Z,101483.78
2023-02-15T17:00:58.163Z,101470.91
2023-02-15T17:03:26.890Z,101466.91
2023-02-15T17:05:56.843Z,101470.69
2023-02-15T17:08:29.982Z,101474.28
2023-02-15T17:11:15.299Z,101464.16
2023-02-15T17:14:15.201Z,101469.31
2023-02-15T17:16:45.541Z,101472.06
2023-02-15T17:19:17.502Z,101477.31
2023-02-15T17:21:50.526Z,101462.22
2023-02-15T17:24:19.944Z,101449.50
2023-02-15T17:26:53.031Z,101447.22
2023-02-15T17:29:27.945Z,101449.72
2023-02-15T17:31:58.486Z,101434.09
2023-02-15T17:34:48.710Z,101438.13
2023-02-15T17:37:26.307Z,101436.03
2023-02-15T17:39:54.360Z,101441.72
2023-02-15T17:42:23.380Z,101426.28
2023-02-15T17:44:51.260Z,101443.53
2023-02-15T17:47:20.771Z,101445.97
2023-02-15T17:49:51.934Z,101448.41
2023-02-15T17:52:19.781Z,101455.63
2023-02-15T17:55:04.995Z,101443.97
2023-02-15T17:57:34.430Z,101459.22
2023-02-15T18:00:19.690Z,101457.00
2023-02-15T18:03:05.552Z,101460.44
2023-02-15T18:05:51.006Z,101449.75
2023-02-15T18:08:37.488Z,101458.06
2023-02-15T18:11:22.849Z,101450.25
2023-02-15T18:13:51.948Z,101461.91
2023-02-15T18:16:24.550Z,101468.06
2023-02-15T18:18:52.209Z,101466.97
2023-02-15T18:21:20.318Z,101457.25
2023-02-15T18:23:47.969Z,101459.50
2023-02-15T18:26:19.926Z,101469.56
2023-02-15T18:28:47.722Z,101474.66
2023-02-15T18:31:17.306Z,101473.94
2023-02-15T18:33:48.169Z,101451.28
2023-02-15T18:36:19.112Z,101454.88
2023-02-15T18:38:46.791Z,101477.28
2023-02-15T18:41:18.936Z,101483.53
2023-02-15T18:43:48.831Z,101457.38
2023-02-15T18:46:18.644Z,101467.97
2023-02-15T18:48:47.604Z,101467.53
2023-02-15T18:51:19.287Z,101454.81
2023-02-15T18:53:48.040Z,101477.00
2023-02-15T18:56:20.314Z,101482.50
2023-02-15T18:58:49.271Z,101486.47
2023-02-15T19:01:20.420Z,101491.84
2023-02-15T19:03:49.158Z,101497.16
2023-02-15T19:06:18.988Z,101508.66
2023-02-15T19:08:49.076Z,101510.41
2023-02-15T19:11:18.796Z,101504.78
2023-02-15T19:13:49.034Z,101520.53
2023-02-15T19:16:30.643Z,101509.94
2023-02-15T19:18:59.122Z,101498.41
2023-02-15T19:21:28.568Z,101501.88
2023-02-15T19:23:59.229Z,101504.59
2023-02-15T19:26:44.561Z,101505.72
2023-02-15T19:29:14.004Z,101497.84
2023-02-15T19:31:43.580Z,101500.44
2023-02-15T19:34:14.801Z,101497.84
2023-02-15T19:36:42.822Z,101503.41
2023-02-15T19:39:23.953Z,101464.75
2023-02-15T19:41:51.782Z,101476.22
2023-02-15T19:44:19.967Z,101469.13
2023-02-15T19:46:49.088Z,101491.44
2023-02-15T19:49:17.025Z,101510.09
2023-02-15T19:51:44.926Z,101514.66
2023-02-15T19:54:21.952Z,101511.59
2023-02-15T19:56:49.793Z,101503.81
2023-02-15T19:59:24.133Z,101504.31
2023-02-15T20:01:53.834Z,101503.63
2023-02-15T20:04:21.848Z,101506.31
2023-02-15T20:06:50.832Z,101492.69
2023-02-15T20:09:24.055Z,101499.97
2023-02-15T20:11:52.316Z,101501.16
2023-02-15T20:14:20.634Z,101491.91
2023-02-15T20:16:48.295Z,101490.78
2023-02-15T20:19:17.747Z,101495.03
2023-02-15T20:21:47.093Z,101485.41
2023-02-15T20:24:16.829Z,101482.34
2023-02-15T20:26:45.110Z,101483.56
2023-02-15T20:29:15.173Z,101484.22
2023-02-15T20:31:43.216Z,101489.28
2023-02-15T20:34:11.120Z,101490.28
2023-02-15T20:36:41.042Z,101483.78
2023-02-15T20:39:15.260Z,101494.53
2023-02-15T20:41:47.700Z,101497.44
2023-02-15T20:44:21.877Z,101508.44
2023-02-15T20:46:50.373Z,101507.19
2023-02-15T20:49:18.124Z,101505.78
2023-02-15T20:51:48.106Z,101513.16
2023-02-15T20:54:17.820Z,101516.88
2023-02-15T20:56:45.560Z,101516.75
2023-02-15T20:59:23.463Z,101508.72
2023-02-15T21:01:52.110Z,101514.78
2023-02-15T21:04:29.306Z,101517.47
2023-02-15T21:06:58.754Z,101519.28
2023-02-15T21:09:26.441Z,101517.44
2023-02-15T21:11:56.183Z,101525.44
2023-02-15T21:14:25.371Z,101527.97
2023-02-15T21:16:53.051Z,101527.84
2023-02-15T21:19:22.554Z,101535.53
2023-02-15T21:21:52.494Z,101540.75
2023-02-15T21:24:24.882Z,101542.56
2023-02-15T21:26:53.276Z,101528.91
2023-02-15T21:29:22.079Z,101534.25
2023-02-15T21:31:50.141Z,101532.09
2023-02-15T21:34:19.450Z,101535.13
2023-02-15T21:36:48.898Z,101527.47
2023-02-15T21:39:19.316Z,101517.13
2023-02-15T21:42:07.641Z,101519.63
2023-02-15T21:44:52.948Z,101516.13
2023-02-15T21:47:39.821Z,101519.63
2023-02-15T21:50:23.282Z,101518.63
2023-02-15T21:52:51.193Z,101516.63
2023-02-15T21:55:19.149Z,101515.63
2023-02-15T21:57:48.481Z,101505.81
2023-02-15T22:00:18.412Z,101509.28
2023-02-15T22:02:47.548Z,101503.31
2023-02-15T22:05:18.074Z,101498.00
2023-02-15T22:07:45.832Z,101496.31
2023-02-15T22:10:13.703Z,101496.97
2023-02-15T22:12:43.371Z,101487.63
2023-02-15T22:15:20.312Z,101494.94
2023-02-15T22:17:48.330Z,101494.75
2023-02-15T22:20:17.908Z,101494.47
2023-02-15T22:22:45.996Z,101494.75
2023-02-15T22:25:16.134Z,101500.28
2023-02-15T22:27:44.603Z,101494.28
2023-02-15T22:30:22.963Z,101493.94
2023-02-15T22:32:51.108Z,101494.94
2023-02-15T22:35:20.644Z,101502.13
2023-02-15T22:37:48.345Z,101498.59
2023-02-15T22:40:17.237Z,101493.19
2023-02-15T22:42:47.090Z,101496.38
2023-02-15T22:45:19.991Z,101504.72
2023-02-15T22:47:48.612Z,101495.97
2023-02-15T22:50:18.952Z,101492.28
2023-02-15T22:52:47.012Z,101493.66
2023-02-15T22:55:16.483Z,101487.03
2023-02-15T22:57:45.372Z,101483.34
2023-02-15T23:00:18.343Z,101485.66
2023-02-15T23:02:47.928Z,101488.16
2023-02-15T23:05:19.709Z,101489.97
2023-02-15T23:07:48.470Z,101481.97
2023-02-15T23:10:22.206Z,101469.16
2023-02-15T23:13:08.393Z,101470.28
2023-02-15T23:15:37.107Z,101479.50
2023-02-15T23:18:17.128Z,101477.50
2023-02-15T23:20:45.585Z,101471.97
2023-02-15T23:23:14.883Z,101472.81
2023-02-15T23:25:43.168Z,101477.28
2023-02-15T23:28:20.103Z,101468.47
2023-02-15T23:30:48.551Z,101473.47
2023-02-15T23:33:20.864Z,101467.94
2023-02-15T23:35:48.638Z,101469.44
2023-02-15T23:38:21.895Z,101462.94
2023-02-15T23:41:10.448Z,101461.94
2023-02-15T23:43:38.738Z,101464.78
2023-02-15T23:46:08.105Z,101472.09
2023-02-15T23:48:39.030Z,101464.63
2023-02-15T23:51:11.485Z,101463.78
2023-02-15T23:53:39.496Z,101468.97
2023-02-15T23:56:07.726Z,101463.16
2023-02-15T23:58:37.581Z,101460.00
